Latest Weather Observations for Argyle

IDW60801

Issued at 11:43 am WST Saturday 20 July 2019 (issued every 10 minutes, with the page automatically refreshed every 10 minutes)

About weather observations | Map of weather stations | Latest weather observations for WA | Other Formats
Station Details ID: 002064 Name: ARGYLE AERODROME Lat: -16.64 Lon: 128.45 Height: 164.0 m
Data from the previous 72 hours. | See also: Recent months at Argyle
Date/Time
WST
Temp
°C
App
Temp
°C
Dew
Point
°C
Rel
Hum
%
Delta-T
°C
Wind Press
QNH
hPa
Press
MSL
hPa
Rain since
9am
mm
Dir  Spd
km/h
Gust
km/h
Spd
kts
Gust
kts
20/11:30am 30.9 26.6 1.3 15 14.6 NE 13 20 7 11 1015.3 1014.6 0.0
20/11:00am 30.0 25.4 -1.4 13 14.7 NNE 13 20 7 11 1015.9 1015.2 0.0
20/10:30am 29.6 25.7 -1.7 13 14.6 NE 9 17 5 9 1016.5 1015.9 0.0
20/10:00am 28.8 24.4 -2.3 13 14.2 NE 11 17 6 9 1016.9 1016.3 0.0
20/09:30am 28.4 23.6 -2.6 13 14.1 ENE 13 20 7 11 1017.3 1016.7 0.0
20/09:00am 27.4 22.5 -3.4 13 13.7 ENE 13 20 7 11 1017.5 1016.9 -
20/08:30am 25.9 23.3 -1.8 16 12.5 NW 2 9 1 5 1017.7 1017.1 -
20/08:00am 25.0 22.8 -1.7 17 12.0 CALM 0 6 0 3 1017.8 1017.2 -
20/07:30am 23.3 21.1 -1.6 19 11.1 CALM 0 0 0 0 1017.7 1017.1 -
20/07:00am 20.9 17.6 0.2 25 9.3 SW 7 9 4 5 1017.5 1016.9 -
20/06:30am 18.6 14.6 0.2 29 8.1 SW 11 13 6 7 1017.1 1016.5 -
20/06:00am 17.9 13.5 0.1 30 7.8 SW 13 13 7 7 1016.6 1016.0 -
20/05:30am 17.3 14.0 -0.9 29 7.8 SSW 6 9 3 5 1016.4 1015.8 -
20/05:00am 19.1 15.9 -0.8 26 8.6 NE 6 6 3 3 1016.1 1015.4 -
20/04:30am 18.9 16.8 -1.0 26 8.6 CALM 0 6 0 3 1015.9 1015.2 -
20/04:00am 18.1 14.8 -0.2 29 8.0 W 7 9 4 5 1015.5 1014.8 -
20/03:30am 16.4 12.3 -0.3 32 7.2 WNW 11 13 6 7 1015.5 1014.8 -
20/03:00am 16.3 12.5 -0.8 31 7.2 WNW 9 11 5 6 1015.4 1014.7 -
20/02:30am 17.8 14.9 -0.9 28 8.0 ESE 4 6 2 3 1015.6 1014.9 -
20/02:00am 18.7 16.6 -0.7 27 8.4 CALM 0 0 0 0 1015.9 1015.2 -
20/01:30am 19.3 17.4 0.4 28 8.4 CALM 0 4 0 2 1016.0 1015.3 -
20/01:00am 19.1 16.7 -0.3 27 8.5 W 2 7 1 4 1016.1 1015.4 -
20/12:30am 18.4 14.7 0.1 29 8.1 W 9 9 5 5 1016.3 1015.7 -
20/12:00am 18.7 16.5 -1.2 26 8.5 CALM 0 7 0 4 1016.3 1015.7 -
 
Date/Time
WST
Temp
°C
App
Temp
°C
Dew
Point
°C
Rel
Hum
%
Delta-T
°C
Wind Press
QNH
hPa
Press
MSL
hPa
Rain since
9am
mm
Dir  Spd
km/h
Gust
km/h
Spd
kts
Gust
kts
19/11:30pm 20.2 16.8 -0.4 25 9.1 ESE 7 9 4 5 1016.5 1015.9 -
19/11:00pm 19.6 15.5 -0.4 26 8.8 ESE 11 13 6 7 1016.5 1015.9 -
19/10:30pm 21.5 18.9 0.7 25 9.5 SE 4 9 2 5 1016.4 1015.8 -
19/10:00pm 21.6 17.9 0.2 24 9.7 SW 9 11 5 6 1016.3 1015.7 -
19/09:30pm 22.5 18.9 0.4 23 10.1 WSW 9 11 5 6 1016.3 1015.7 -
19/09:00pm 23.4 20.1 -0.1 21 10.7 WSW 7 9 4 5 1016.3 1015.7 -
19/08:30pm 22.8 18.7 0.0 22 10.4 WSW 11 13 6 7 1016.1 1015.4 -
19/08:00pm 23.2 19.7 -1.0 20 10.8 WSW 7 9 4 5 1015.8 1015.1 -
19/07:30pm 24.1 20.2 -1.7 18 11.5 WSW 9 9 5 5 1015.6 1014.9 -
19/07:00pm 25.4 22.0 -0.6 18 12.0 WSW 7 7 4 4 1015.2 1014.5 -
19/06:30pm 25.8 22.2 -1.9 16 12.5 NNE 7 9 4 5 1014.9 1014.2 -
19/06:00pm 27.2 23.4 -0.8 16 13.0 NNE 9 11 5 6 1014.6 1013.9 -
19/05:30pm 27.6 23.7 -1.3 15 13.4 NNE 9 9 5 5 1014.3 1013.6 -
19/05:00pm 28.9 24.9 -2.3 13 14.3 NNE 9 13 5 7 1014.1 1013.4 -
19/04:30pm 30.4 26.6 -1.1 13 14.9 NNE 9 13 5 7 1013.9 1013.2 -
19/04:00pm 30.9 27.0 -1.8 12 15.3 NNE 9 17 5 9 1013.8 1013.1 -
19/03:30pm 31.4 27.1 -1.4 12 15.6 NNE 11 20 6 11 1013.7 1013.0 -
19/03:00pm 31.4 27.5 -1.4 12 15.6 NNE 9 17 5 9 1013.7 1013.0 0.0
19/02:30pm 31.3 26.6 -1.5 12 15.5 NNE 13 20 7 11 1013.7 1013.0 -
19/02:00pm 31.8 28.0 -1.1 12 15.7 NNE 9 22 5 12 1013.8 1013.1 -
19/01:30pm 31.2 26.4 -2.7 11 15.7 ENE 13 20 7 11 1014.0 1013.3 -
19/01:00pm 31.5 25.9 -2.5 11 15.8 NNE 17 24 9 13 1014.2 1013.5 -
19/12:30pm 31.1 26.3 -2.8 11 15.7 NE 13 20 7 11 1014.7 1014.0 -
19/12:00pm 30.5 25.8 -2.1 12 15.2 ENE 13 19 7 10 1015.3 1014.6 0.0
19/11:30am 30.0 24.4 -2.5 12 15.0 NE 17 26 9 14 1015.7 1015.0 0.0
19/11:00am 28.8 24.3 -3.4 12 14.4 N 11 17 6 9 1016.4 1015.8 0.0
19/10:30am 27.8 23.3 -3.1 13 13.8 E 11 20 6 11 1016.9 1016.3 0.0
19/10:00am 26.7 21.4 -4.0 13 13.4 ESE 15 24 8 13 1017.6 1017.0 0.0
19/09:30am 26.1 20.7 -4.4 13 13.2 ESE 15 24 8 13 1017.7 1017.1 0.0
19/09:00am 25.3 20.3 -4.1 14 12.6 E 13 22 7 12 1018.1 1017.5 0.0
19/08:30am 24.1 19.5 -4.1 15 12.0 E 11 17 6 9 1018.2 1017.6 0.0
19/08:00am 23.6 20.4 -3.7 16 11.6 ESE 4 9 2 5 1018.1 1017.5 0.0
19/07:30am 22.2 18.7 -3.2 18 10.8 ESE 6 7 3 4 1017.9 1017.3 0.0
19/07:00am 20.1 17.7 -2.9 21 9.7 CALM 0 0 0 0 1017.6 1017.0 0.0
19/06:30am 18.4 16.1 -2.5 24 8.7 CALM 0 0 0 0 1017.1 1016.5 0.0
19/06:00am 16.4 14.1 -2.1 28 7.6 CALM 0 0 0 0 1016.7 1016.1 0.0
19/05:30am 16.5 13.2 -1.6 29 7.6 N 6 7 3 4 1016.5 1015.9 0.0
19/05:00am 16.2 13.6 -1.8 29 7.5 N 2 7 1 4 1016.3 1015.7 0.0
19/04:30am 16.4 14.1 -2.1 28 7.6 CALM 0 0 0 0 1016.3 1015.7 0.0
19/04:00am 17.5 15.3 -1.2 28 7.9 CALM 0 0 0 0 1016.2 1015.6 0.0
19/03:30am 17.1 13.7 -2.0 27 8.0 WNW 6 7 3 4 1016.1 1015.4 0.0
19/03:00am 18.0 14.6 -2.3 25 8.5 NNW 6 7 3 4 1016.0 1015.3 0.0
19/02:30am 18.4 15.1 -1.4 26 8.5 NNW 6 9 3 5 1015.8 1015.1 0.0
19/02:00am 18.9 15.4 -1.5 25 8.7 NW 7 7 4 4 1015.9 1015.2 0.0
19/01:30am 17.9 15.0 -0.8 28 8.0 NW 4 7 2 4 1015.9 1015.2 0.0
19/01:00am 17.6 14.3 -1.1 28 8.0 WNW 6 9 3 5 1015.9 1015.2 0.0
19/12:30am 17.9 14.5 -2.4 25 8.4 S 6 9 3 5 1016.1 1015.4 0.0
19/12:00am 19.7 16.1 -2.0 23 9.2 S 7 9 4 5 1016.1 1015.4 0.0
 
Date/Time
WST
Temp
°C
App
Temp
°C
Dew
Point
°C
Rel
Hum
%
Delta-T
°C
Wind Press
QNH
hPa
Press
MSL
hPa
Rain since
9am
mm
Dir  Spd
km/h
Gust
km/h
Spd
kts
Gust
kts
18/11:30pm 19.3 15.8 -1.2 25 8.9 S 7 11 4 6 1016.1 1015.4 0.0
18/11:00pm 20.1 16.5 -2.3 22 9.5 SSE 7 9 4 5 1016.1 1015.4 0.0
18/10:30pm 21.5 18.0 -1.7 21 10.1 S 7 9 4 5 1016.1 1015.4 0.0
18/10:00pm 22.3 18.9 -1.7 20 10.5 S 6 9 3 5 1016.1 1015.4 0.0
18/09:30pm 23.2 19.3 -1.7 19 11.0 SSW 9 13 5 7 1016.4 1015.8 0.0
18/09:00pm 23.5 20.0 -1.4 19 11.1 SSW 7 11 4 6 1016.3 1015.7 0.0
18/08:30pm 23.0 19.7 -1.1 20 10.8 SW 6 7 3 4 1016.1 1015.4 0.0
18/08:00pm 22.9 19.8 -2.6 18 11.1 WSW 4 6 2 3 1016.0 1015.3 0.0
18/07:30pm 23.3 19.9 -2.3 18 11.2 WSW 6 9 3 5 1015.8 1015.1 0.0
18/07:00pm 23.6 21.3 -2.1 18 11.3 CALM 0 0 0 0 1015.3 1014.6 0.0
18/06:30pm 24.5 20.9 -2.1 17 11.8 NE 7 9 4 5 1015.0 1014.3 0.0
18/06:00pm 25.2 21.9 -1.6 17 12.1 ENE 6 6 3 3 1014.6 1013.9 0.0
18/05:30pm 26.5 23.0 -3.1 14 13.1 ENE 6 7 3 4 1014.5 1013.8 0.0
18/05:00pm 27.9 24.2 -3.0 13 13.9 NE 7 9 4 5 1014.3 1013.6 0.0
18/04:30pm 29.6 25.9 -2.8 12 14.8 E 7 13 4 7 1014.1 1013.4 0.0
18/04:00pm 30.2 26.8 -2.3 12 15.0 NE 6 13 3 7 1014.0 1013.3 0.0
18/03:30pm 30.1 26.1 -2.4 12 15.0 ESE 9 17 5 9 1013.9 1013.2 0.0
18/03:00pm 30.2 25.8 -2.3 12 15.0 E 11 17 6 9 1013.9 1013.2 0.0
18/02:30pm 29.9 26.4 -2.6 12 14.9 ESE 6 13 3 7 1014.1 1013.4 0.0
18/02:00pm 29.5 24.8 -1.8 13 14.5 ESE 13 24 7 13 1014.4 1013.7 0.0
18/01:30pm 29.5 25.6 -1.8 13 14.5 NE 9 15 5 8 1014.8 1014.1 0.0
18/01:00pm 28.9 24.1 -2.3 13 14.3 ESE 13 20 7 11 1015.3 1014.6 0.0
18/12:30pm 28.1 23.8 -1.9 14 13.8 ENE 11 15 6 8 1015.7 1015.0 0.0
18/12:00pm 27.9 23.2 -2.0 14 13.7 ENE 13 20 7 11 1016.3 1015.7 0.0
18/11:30am 27.8 22.7 -2.1 14 13.6 E 15 22 8 12 1016.9 1016.3 0.0
18/11:00am 26.4 22.5 -1.4 16 12.7 E 9 20 5 11 1017.5 1016.9 0.0
18/10:30am 25.5 20.5 -1.3 17 12.2 E 15 24 8 13 1018.2 1017.6 0.0
18/10:00am 25.1 19.8 -0.9 18 11.8 E 17 26 9 14 1018.8 1018.1 0.0
18/09:30am 23.7 18.3 -1.3 19 11.2 E 17 26 9 14 1019.2 1018.5 0.0
18/09:00am 23.4 18.9 -0.1 21 10.7 ENE 13 20 7 11 1019.5 1018.8 0.0
18/08:30am 22.3 18.2 -0.4 22 10.2 ENE 11 15 6 8 1019.5 1018.8 0.0
18/08:00am 21.1 17.0 -0.2 24 9.5 E 11 17 6 9 1019.6 1018.9 0.0
18/07:30am 20.0 17.3 0.5 27 8.8 SSE 4 9 2 5 1019.2 1018.5 0.0
18/07:00am 17.7 14.6 0.4 31 7.6 W 6 6 3 3 1019.0 1018.3 0.0
18/06:30am 16.0 12.8 -0.2 33 6.9 WNW 6 7 3 4 1018.8 1018.1 0.0
18/06:00am 15.0 11.8 -0.3 35 6.5 WNW 6 7 3 4 1018.2 1017.6 0.0
18/05:30am 14.8 11.7 -0.1 36 6.3 NNW 6 7 3 4 1017.9 1017.3 0.0
18/05:00am 15.6 12.9 0.2 35 6.6 ESE 4 7 2 4 1017.7 1017.1 0.0
18/04:30am 15.2 12.8 -0.5 34 6.6 ESE 2 6 1 3 1017.5 1016.9 0.0
18/04:00am 15.3 13.3 -0.4 34 6.6 CALM 0 4 0 2 1017.1 1016.5 0.0
18/03:30am 15.5 12.7 -0.7 33 6.8 ESE 4 7 2 4 1016.9 1016.3 0.0
18/03:00am 16.1 12.4 -0.2 33 7.0 ESE 9 11 5 6 1016.8 1016.2 0.0
18/02:30am 15.7 11.9 -0.9 32 7.0 ESE 9 11 5 6 1016.7 1016.1 0.0
18/02:00am 16.3 12.2 -0.4 32 7.1 ESE 11 13 6 7 1016.7 1016.1 0.0
18/01:30am 17.1 12.9 -0.6 30 7.6 SE 11 13 6 7 1016.9 1016.3 0.0
18/01:00am 17.6 13.4 -0.6 29 7.8 SE 11 13 6 7 1017.0 1016.4 0.0
18/12:30am 18.2 14.0 -0.6 28 8.1 SE 11 13 6 7 1017.1 1016.5 0.0
18/12:00am 18.6 14.4 -0.7 27 8.4 SE 11 13 6 7 1017.3 1016.7 0.0
 
Date/Time
WST
Temp
°C
App
Temp
°C
Dew
Point
°C
Rel
Hum
%
Delta-T
°C
Wind Press
QNH
hPa
Press
MSL
hPa
Rain since
9am
mm
Dir  Spd
km/h
Gust
km/h
Spd
kts
Gust
kts
17/11:30pm 18.3 14.0 -1.5 26 8.4 E 11 13 6 7 1017.3 1016.7 0.0
17/11:00pm 19.3 15.1 -1.2 25 8.8 E 11 13 6 7 1017.3 1016.7 0.0
17/10:30pm 19.4 15.5 -1.7 24 9.0 ESE 9 11 5 6 1017.5 1016.9 0.0
17/10:00pm 20.1 16.1 -2.3 22 9.5 ESE 9 11 5 6 1017.5 1016.9 0.0
17/09:30pm 20.4 16.4 -2.0 22 9.6 ESE 9 11 5 6 1017.3 1016.7 0.0
17/09:00pm 20.7 16.7 -2.4 21 9.9 ESE 9 11 5 6 1017.3 1016.7 0.0
17/08:30pm 21.6 17.6 -2.3 20 10.3 ENE 9 11 5 6 1017.2 1016.6 0.0
17/08:00pm 21.1 17.5 -2.0 21 10.0 E 7 7 4 4 1017.1 1016.5 0.0
17/07:30pm 21.6 18.1 -3.0 19 10.5 SE 6 7 3 4 1016.9 1016.3 0.0
17/07:00pm 23.8 20.2 -1.9 18 11.4 SSE 7 11 4 6 1016.6 1016.0 0.0
17/06:30pm 24.4 20.4 -2.2 17 11.8 SSE 9 13 5 7 1016.1 1015.4 0.0
17/06:00pm 24.9 21.0 -1.8 17 12.0 SSE 9 15 5 8 1015.7 1015.0 0.0
17/05:30pm 25.4 21.4 -2.2 16 12.3 SSE 9 13 5 7 1015.5 1014.8 0.0
17/05:00pm 26.6 22.2 -2.1 15 13.0 SSE 11 20 6 11 1015.1 1014.4 0.0
17/04:30pm 27.7 22.4 -3.2 13 13.8 SSE 15 20 8 11 1014.9 1014.2 0.0
17/04:00pm 28.3 23.4 -3.8 12 14.3 SE 13 22 7 12 1014.6 1013.9 0.0
17/03:30pm 28.5 23.6 -3.6 12 14.3 SE 13 19 7 10 1014.5 1013.8 0.0
17/03:00pm 28.1 23.1 -3.9 12 14.2 SE 13 22 7 12 1014.8 1014.1 0.0
17/02:30pm 28.6 23.3 -3.6 12 14.4 E 15 24 8 13 1015.0 1014.3 0.0
17/02:00pm 28.3 23.0 -3.8 12 14.2 ENE 15 24 8 13 1015.3 1014.6 0.0
17/01:30pm 28.2 23.2 -3.9 12 14.2 ESE 13 20 7 11 1015.6 1014.9 0.0
17/01:00pm 28.3 23.5 -2.7 13 14.0 ESE 13 24 7 13 1016.0 1015.3 0.0
17/12:30pm 26.7 21.0 -4.0 13 13.4 ESE 17 26 9 14 1016.7 1016.1 0.0
17/12:00pm 26.7 20.6 -4.0 13 13.4 ESE 19 32 10 17 1017.1 1016.5 0.0

Other formats

Comma delimited format used in spreadsheet applications
http://www.bom.gov.au/fwo/IDW60801/IDW60801.94217.axf

JavaScript Object Notation format (JSON) in row-major order
http://www.bom.gov.au/fwo/IDW60801/IDW60801.94217.json

Data quality

Most of these data are generated automatically and are frequently updated. Quality checks on data are not normally performed. It is possible for incorrect values to appear. Refer to information at About Latest Weather Observations and please check the disclaimer before using these data.